Time;durP1;ratioP1;P1;durP2;ratioP2;P2;SDS_P1;SDS_P2;PMS_P1;PMS_P2;Temp;Humidity;BMP_temperature;BMP_pressure;BME280_temperature;BME280_humidity;BME280_pressure;Samples;Min_cycle;Max_cycle;Signal;HPM_P1;HPM_P2
2022/11/03 00:01:38;;;;;;;20.38;12.35;;;;;;;;;;5033067;28;20037;-66
2022/11/03 00:04:09;;;;;;;18.20;12.80;;;;;;;;;;5033008;28;20133;-66
2022/11/03 00:06:35;;;;;;;20.42;12.68;;;;;;;;;;5033048;28;20037;-66
2022/11/03 00:09:04;;;;;;;21.70;13.35;;;;;;;;;;5033193;28;20030;-66
2022/11/03 00:11:33;;;;;;;19.10;12.70;;;;;;;;;;5033325;28;20129;-65
2022/11/03 00:13:58;;;;;;;17.38;12.15;;;;;;;;;;5033501;28;20033;-65
2022/11/03 00:16:24;;;;;;;16.35;10.38;;;;;;;;;;5033469;28;20428;-66
2022/11/03 00:18:50;;;;;;;20.25;10.88;;;;;;;;;;5032822;28;20029;-65
2022/11/03 00:21:16;;;;;;;21.88;11.43;;;;;;;;;;5032520;28;20374;-67
2022/11/03 00:23:43;;;;;;;17.55;11.13;;;;;;;;;;5032662;28;20036;-65
2022/11/03 00:26:23;;;;;;;21.60;11.32;;;;;;;;;;5032450;28;20025;-65
2022/11/03 00:28:53;;;;;;;15.15;10.07;;;;;;;;;;5032527;28;20068;-65
2022/11/03 00:31:27;;;;;;;21.15;11.32;;;;;;;;;;5034155;28;20041;-65
2022/11/03 00:33:53;;;;;;;15.48;10.45;;;;;;;;;;5034410;28;20370;-65
2022/11/03 00:36:22;;;;;;;18.10;11.52;;;;;;;;;;5033976;28;20025;-66
2022/11/03 00:38:47;;;;;;;15.75;10.77;;;;;;;;;;5034288;28;20032;-66
2022/11/03 00:41:14;;;;;;;15.20;10.35;;;;;;;;;;5034027;28;20029;-65
2022/11/03 00:43:40;;;;;;;18.13;11.25;;;;;;;;;;5033206;28;20103;-64
2022/11/03 00:46:07;;;;;;;15.68;10.38;;;;;;;;;;5032363;28;20477;-65
2022/11/03 00:48:34;;;;;;;17.08;10.18;;;;;;;;;;5032614;28;20029;-66
2022/11/03 00:51:14;;;;;;;17.88;10.48;;;;;;;;;;5032237;28;20071;-64
2022/11/03 00:53:43;;;;;;;17.27;10.05;;;;;;;;;;5026991;28;20033;-63
2022/11/03 00:56:32;;;;;;;15.65;10.25;;;;;;;;;;5032698;28;20033;-65
2022/11/03 00:59:00;;;;;;;14.32;9.38;;;;;;;;;;5035667;28;20038;-67
2022/11/03 01:01:39;;;;;;;15.35;9.85;;;;;;;;;;5028952;28;20108;-67
2022/11/03 01:06:52;;;;;;;15.70;9.80;;;;;;;;;;5014137;28;20390;-65
2022/11/03 01:09:38;;;;;;;15.10;9.25;;;;;;;;;;5013727;28;20022;-68
2022/11/03 01:12:08;;;;;;;13.15;9.07;;;;;;;;;;5013617;28;20533;-64
2022/11/03 01:14:43;;;;;;;11.00;8.48;;;;;;;;;;5013834;28;20401;-68
2022/11/03 01:17:14;;;;;;;16.67;8.90;;;;;;;;;;5013617;28;20111;-67
2022/11/03 01:19:40;;;;;;;14.20;8.63;;;;;;;;;;5013614;28;20025;-64
2022/11/03 01:22:06;;;;;;;12.77;8.05;;;;;;;;;;5013776;28;20028;-67
2022/11/03 01:24:33;;;;;;;13.43;8.68;;;;;;;;;;5013606;28;20176;-65
2022/11/03 01:26:58;;;;;;;12.82;8.23;;;;;;;;;;5013367;28;20545;-68
2022/11/03 01:29:24;;;;;;;16.05;8.02;;;;;;;;;;5012422;28;20105;-67
2022/11/03 01:31:49;;;;;;;14.85;9.30;;;;;;;;;;5013635;28;20026;-65
2022/11/03 01:34:17;;;;;;;11.85;7.78;;;;;;;;;;5013414;28;20399;-66
2022/11/03 01:36:43;;;;;;;12.75;7.80;;;;;;;;;;5013256;28;20532;-65
2022/11/03 01:39:11;;;;;;;11.45;8.10;;;;;;;;;;5013129;28;20061;-65
2022/11/03 01:41:36;;;;;;;11.40;7.72;;;;;;;;;;5013025;28;20029;-66
2022/11/03 01:44:08;;;;;;;11.02;8.50;;;;;;;;;;5013449;28;20152;-66
2022/11/03 01:46:59;;;;;;;12.10;9.10;;;;;;;;;;5012870;28;20026;-66
2022/11/03 01:49:49;;;;;;;9.98;8.15;;;;;;;;;;5012890;28;20030;-65
2022/11/03 01:52:43;;;;;;;14.75;9.00;;;;;;;;;;5008813;28;20117;-67
2022/11/03 01:55:16;;;;;;;11.70;8.18;;;;;;;;;;5011938;28;20033;-67
2022/11/03 01:57:48;;;;;;;15.35;9.15;;;;;;;;;;5012812;28;20145;-67
2022/11/03 02:00:14;;;;;;;13.10;8.50;;;;;;;;;;5012957;28;20022;-65
2022/11/03 02:02:41;;;;;;;11.02;8.13;;;;;;;;;;5026494;28;20029;-63
2022/11/03 02:05:09;;;;;;;10.95;8.10;;;;;;;;;;5029746;28;20049;-63
2022/11/03 02:07:44;;;;;;;10.20;7.10;;;;;;;;;;5029634;28;20025;-63
2022/11/03 02:10:10;;;;;;;13.05;9.70;;;;;;;;;;5029212;28;20033;-67
2022/11/03 02:12:36;;;;;;;11.32;7.95;;;;;;;;;;5029662;28;20033;-63
2022/11/03 02:15:08;;;;;;;9.52;7.03;;;;;;;;;;5029988;28;20108;-64
2022/11/03 02:17:35;;;;;;;10.43;6.95;;;;;;;;;;5031778;28;20032;-63
2022/11/03 02:20:12;;;;;;;10.13;6.70;;;;;;;;;;5032420;28;20022;-63
2022/11/03 02:22:56;;;;;;;9.00;6.93;;;;;;;;;;5032378;28;20021;-62
2022/11/03 02:25:36;;;;;;;10.20;6.85;;;;;;;;;;5032252;28;20493;-62
2022/11/03 02:28:03;;;;;;;9.73;6.97;;;;;;;;;;5032381;28;20037;-62
2022/11/03 02:30:35;;;;;;;10.27;6.85;;;;;;;;;;5032244;28;20029;-62
2022/11/03 02:33:19;;;;;;;11.48;7.28;;;;;;;;;;5032385;28;20030;-62
2022/11/03 02:35:58;;;;;;;8.98;6.25;;;;;;;;;;5032295;28;20575;-63
2022/11/03 02:38:27;;;;;;;8.85;6.45;;;;;;;;;;5030859;28;20029;-61
2022/11/03 02:40:55;;;;;;;9.70;6.28;;;;;;;;;;5045092;28;20100;-62
2022/11/03 02:43:23;;;;;;;8.43;7.00;;;;;;;;;;5012791;28;20449;-62
2022/11/03 02:45:51;;;;;;;8.38;6.72;;;;;;;;;;5028157;28;20021;-62
2022/11/03 02:48:17;;;;;;;10.95;6.05;;;;;;;;;;5030974;28;20022;-62
2022/11/03 02:50:45;;;;;;;7.93;6.05;;;;;;;;;;5033301;28;20469;-62
2022/11/03 02:53:12;;;;;;;12.20;6.63;;;;;;;;;;5034820;28;20026;-62
2022/11/03 02:55:41;;;;;;;8.15;5.70;;;;;;;;;;5035163;28;20032;-61
2022/11/03 02:58:24;;;;;;;9.27;6.67;;;;;;;;;;5036241;28;20044;-62
2022/11/03 03:01:10;;;;;;;7.72;6.10;;;;;;;;;;5035180;28;20040;-62
2022/11/03 03:03:51;;;;;;;9.38;6.50;;;;;;;;;;5035677;28;20098;-62
2022/11/03 03:06:25;;;;;;;9.40;6.07;;;;;;;;;;5035877;28;20038;-61
2022/11/03 03:08:59;;;;;;;8.23;5.97;;;;;;;;;;5035958;28;20047;-61
2022/11/03 03:11:43;;;;;;;9.15;6.32;;;;;;;;;;5035691;28;20049;-61
2022/11/03 03:14:12;;;;;;;7.20;5.57;;;;;;;;;;5035716;28;20104;-62
2022/11/03 03:17:06;;;;;;;7.83;6.07;;;;;;;;;;5035575;28;20021;-62
2022/11/03 03:19:49;;;;;;;7.60;5.68;;;;;;;;;;5035154;28;20305;-63
2022/11/03 03:22:23;;;;;;;8.15;6.15;;;;;;;;;;5035507;28;20489;-62
2022/11/03 03:25:07;;;;;;;8.05;5.80;;;;;;;;;;5035451;28;20029;-62
2022/11/03 03:27:36;;;;;;;9.40;6.60;;;;;;;;;;5035804;28;20112;-62
2022/11/03 03:30:05;;;;;;;9.05;5.50;;;;;;;;;;5035597;28;20108;-61
2022/11/03 03:32:37;;;;;;;7.43;5.73;;;;;;;;;;5035649;28;20381;-62
2022/11/03 03:35:07;;;;;;;7.95;6.13;;;;;;;;;;5066860;28;20021;-62
2022/11/03 03:37:36;;;;;;;7.53;5.80;;;;;;;;;;5034282;28;20390;-62
2022/11/03 03:40:06;;;;;;;6.13;5.20;;;;;;;;;;5035516;28;20099;-63
2022/11/03 03:42:33;;;;;;;9.52;5.75;;;;;;;;;;5035168;28;20021;-61
2022/11/03 03:44:59;;;;;;;7.32;5.82;;;;;;;;;;5033884;28;20030;-62
2022/11/03 03:47:31;;;;;;;7.75;5.70;;;;;;;;;;5035011;28;20022;-62
2022/11/03 03:49:57;;;;;;;5.80;5.20;;;;;;;;;;5035260;28;20053;-63
2022/11/03 03:52:24;;;;;;;12.73;5.85;;;;;;;;;;5034966;28;20053;-62
2022/11/03 03:54:50;;;;;;;9.05;5.55;;;;;;;;;;5035189;28;20079;-62
2022/11/03 03:57:21;;;;;;;7.13;5.57;;;;;;;;;;5034850;28;20032;-63
2022/11/03 03:59:47;;;;;;;6.70;5.30;;;;;;;;;;5034910;28;20022;-63
2022/11/03 04:02:13;;;;;;;6.65;5.50;;;;;;;;;;5033617;28;20025;-65
2022/11/03 04:04:38;;;;;;;8.50;5.75;;;;;;;;;;5034576;28;20038;-62
2022/11/03 04:09:48;;;;;;;6.35;5.45;;;;;;;;;;5034861;28;20396;-62
2022/11/03 04:23:13;;;;;;;8.63;5.25;;;;;;;;;;5034777;28;20496;-68
2022/11/03 04:25:38;;;;;;;6.28;5.40;;;;;;;;;;5034373;28;20021;-62
2022/11/03 04:28:10;;;;;;;6.78;5.30;;;;;;;;;;5034394;28;20392;-62
2022/11/03 04:30:36;;;;;;;6.47;5.25;;;;;;;;;;5034240;28;20037;-62
2022/11/03 04:33:01;;;;;;;7.40;5.43;;;;;;;;;;5034322;28;20144;-62
2022/11/03 04:35:27;;;;;;;6.40;5.15;;;;;;;;;;5033026;28;20025;-62
2022/11/03 04:38:13;;;;;;;6.95;5.20;;;;;;;;;;5034308;28;20095;-62
2022/11/03 04:40:48;;;;;;;5.70;4.78;;;;;;;;;;5033470;28;20037;-65
2022/11/03 04:43:16;;;;;;;7.68;5.28;;;;;;;;;;5034262;28;20048;-68
2022/11/03 04:45:44;;;;;;;7.30;5.30;;;;;;;;;;5033922;28;20021;-62
2022/11/03 04:48:17;;;;;;;7.45;5.70;;;;;;;;;;5033870;28;20036;-62
2022/11/03 04:50:46;;;;;;;8.48;5.60;;;;;;;;;;5034216;28;20037;-70
2022/11/03 04:53:14;;;;;;;6.22;5.10;;;;;;;;;;5033782;28;20496;-62
2022/11/03 04:55:41;;;;;;;6.25;5.30;;;;;;;;;;5034072;28;20033;-63
2022/11/03 04:58:20;;;;;;;6.03;5.05;;;;;;;;;;5034017;28;20025;-62
2022/11/03 05:00:50;;;;;;;7.32;5.50;;;;;;;;;;5063778;28;20029;-62
2022/11/03 05:03:21;;;;;;;6.78;4.95;;;;;;;;;;5033531;28;20041;-61
2022/11/03 05:05:47;;;;;;;5.53;4.90;;;;;;;;;;5033625;28;20025;-70
2022/11/03 05:08:16;;;;;;;7.85;5.15;;;;;;;;;;5033863;28;20104;-62
2022/11/03 05:10:42;;;;;;;7.03;5.60;;;;;;;;;;5033386;28;20385;-62
2022/11/03 05:13:21;;;;;;;5.97;5.05;;;;;;;;;;5033782;28;20036;-62
2022/11/03 05:15:50;;;;;;;5.60;5.03;;;;;;;;;;5034059;28;20021;-69
2022/11/03 05:18:28;;;;;;;6.35;5.30;;;;;;;;;;5033421;28;20436;-62
2022/11/03 05:20:58;;;;;;;7.57;5.32;;;;;;;;;;5033377;28;20030;-66
2022/11/03 05:23:26;;;;;;;5.53;4.70;;;;;;;;;;5065288;28;20036;-67
2022/11/03 05:25:57;;;;;;;6.90;5.38;;;;;;;;;;5033461;28;20021;-63
2022/11/03 05:28:26;;;;;;;8.05;5.35;;;;;;;;;;5033254;28;20025;-63
2022/11/03 05:30:53;;;;;;;5.55;4.47;;;;;;;;;;5033458;28;20030;-63
2022/11/03 05:33:27;;;;;;;6.20;5.03;;;;;;;;;;5065029;28;20055;-62
2022/11/03 05:35:54;;;;;;;7.03;4.65;;;;;;;;;;5037126;28;20032;-61
2022/11/03 05:38:21;;;;;;;5.80;4.85;;;;;;;;;;5042996;28;20025;-61
2022/11/03 05:40:52;;;;;;;6.85;4.90;;;;;;;;;;5052309;28;20078;-61
2022/11/03 05:43:19;;;;;;;5.50;4.93;;;;;;;;;;5052764;28;20057;-60
2022/11/03 05:45:46;;;;;;;5.65;4.90;;;;;;;;;;5053099;28;20029;-62
2022/11/03 05:48:48;;;;;;;6.75;4.82;;;;;;;;;;5052669;28;20500;-62
2022/11/03 05:51:21;;;;;;;4.90;4.40;;;;;;;;;;5048039;28;20051;-64
2022/11/03 05:53:56;;;;;;;5.43;4.85;;;;;;;;;;5052728;28;20048;-62
2022/11/03 05:56:24;;;;;;;5.47;4.80;;;;;;;;;;5052690;28;20029;-62
2022/11/03 05:58:52;;;;;;;5.00;4.50;;;;;;;;;;5052590;28;20021;-64
2022/11/03 06:01:19;;;;;;;4.97;4.47;;;;;;;;;;5052532;28;20025;-63
2022/11/03 06:03:46;;;;;;;5.25;4.75;;;;;;;;;;5052389;28;20175;-63
2022/11/03 06:06:37;;;;;;;5.97;4.88;;;;;;;;;;5052726;28;20044;-64
2022/11/03 06:09:11;;;;;;;5.65;5.00;;;;;;;;;;5049714;28;20516;-64
2022/11/03 06:11:37;;;;;;;5.82;5.00;;;;;;;;;;5051317;28;20072;-66
2022/11/03 06:14:18;;;;;;;6.20;5.18;;;;;;;;;;5051170;28;20110;-64
2022/11/03 06:16:48;;;;;;;6.25;5.10;;;;;;;;;;5027636;28;20025;-62
2022/11/03 06:19:28;;;;;;;7.00;5.22;;;;;;;;;;5031273;28;20492;-64
2022/11/03 06:21:56;;;;;;;;;;;;;;;;;;5037545;28;20041;-67
2022/11/03 06:24:28;;;;;;;6.20;4.68;;;;;;;;;;5051846;28;19917;-66
2022/11/03 06:26:55;;;;;;;6.82;5.30;;;;;;;;;;5048523;28;20032;-69
2022/11/03 06:29:21;;;;;;;4.90;4.40;;;;;;;;;;5047591;28;20032;-67
2022/11/03 06:31:49;;;;;;;7.57;5.00;;;;;;;;;;5052022;28;20029;-66
2022/11/03 06:34:20;;;;;;;8.68;5.45;;;;;;;;;;5052355;28;20663;-67
2022/11/03 06:36:46;;;;;;;5.45;4.93;;;;;;;;;;5052011;28;20076;-68
2022/11/03 06:39:20;;;;;;;5.60;4.43;;;;;;;;;;5051982;28;20052;-68
2022/11/03 06:41:45;;;;;;;6.15;4.95;;;;;;;;;;5051321;28;20547;-67
2022/11/03 06:44:25;;;;;;;5.78;5.18;;;;;;;;;;5048931;28;20037;-67
2022/11/03 06:46:55;;;;;;;6.55;4.90;;;;;;;;;;5051020;28;20018;-67
2022/11/03 06:49:27;;;;;;;5.57;4.70;;;;;;;;;;5051218;28;20029;-68
2022/11/03 06:51:54;;;;;;;5.32;4.50;;;;;;;;;;5051387;28;20436;-65
2022/11/03 06:54:20;;;;;;;7.13;4.90;;;;;;;;;;5051665;28;20048;-66
2022/11/03 06:56:45;;;;;;;6.00;5.10;;;;;;;;;;5051213;28;20025;-66
2022/11/03 06:59:14;;;;;;;5.60;5.00;;;;;;;;;;5051845;28;20025;-66
2022/11/03 07:01:40;;;;;;;5.53;4.40;;;;;;;;;;5051765;28;20021;-65
2022/11/03 07:04:31;;;;;;;6.30;4.50;;;;;;;;;;5051682;28;20091;-67
2022/11/03 07:07:01;;;;;;;5.38;4.88;;;;;;;;;;5050508;28;20037;-67
2022/11/03 07:09:27;;;;;;;6.82;4.57;;;;;;;;;;5051724;28;20107;-67
2022/11/03 07:11:56;;;;;;;6.28;4.95;;;;;;;;;;5050462;28;20116;-66
2022/11/03 07:14:27;;;;;;;6.68;4.95;;;;;;;;;;5052181;28;20447;-65
2022/11/03 07:16:56;;;;;;;5.78;4.95;;;;;;;;;;5051904;28;20490;-63
2022/11/03 07:19:29;;;;;;;6.30;5.03;;;;;;;;;;5051672;28;20090;-66
2022/11/03 07:22:00;;;;;;;4.72;4.28;;;;;;;;;;5051683;28;20029;-64
2022/11/03 07:24:32;;;;;;;5.38;4.30;;;;;;;;;;5051971;28;20032;-65
2022/11/03 07:27:20;;;;;;;6.38;4.72;;;;;;;;;;5051756;28;20491;-64
2022/11/03 07:29:48;;;;;;;6.20;4.72;;;;;;;;;;5051587;28;20154;-65
2022/11/03 07:32:22;;;;;;;5.18;4.40;;;;;;;;;;5051987;28;20032;-63
2022/11/03 07:34:51;;;;;;;6.45;4.38;;;;;;;;;;5050241;28;20029;-64
2022/11/03 07:37:23;;;;;;;6.25;4.40;;;;;;;;;;5054324;28;20572;-63
2022/11/03 07:39:49;;;;;;;5.15;4.13;;;;;;;;;;5054978;28;20036;-64
2022/11/03 07:42:21;;;;;;;6.38;4.88;;;;;;;;;;5055070;28;20029;-64
2022/11/03 07:44:48;;;;;;;7.38;4.63;;;;;;;;;;5055119;28;20285;-64
2022/11/03 07:47:20;;;;;;;4.68;4.13;;;;;;;;;;5055262;28;20029;-63
2022/11/03 07:49:46;;;;;;;6.15;4.53;;;;;;;;;;5053931;28;20025;-65
2022/11/03 07:52:15;;;;;;;5.88;4.75;;;;;;;;;;5053623;28;20056;-65
2022/11/03 07:54:41;;;;;;;5.53;4.60;;;;;;;;;;5054835;28;20040;-64
2022/11/03 07:57:20;;;;;;;5.88;4.07;;;;;;;;;;5054810;28;20082;-64
2022/11/03 07:59:49;;;;;;;4.80;4.30;;;;;;;;;;5054875;28;20060;-65
2022/11/03 08:02:41;;;;;;;4.90;4.40;;;;;;;;;;5053343;28;20036;-65
2022/11/03 08:05:07;;;;;;;5.55;4.70;;;;;;;;;;5054256;28;20477;-64
2022/11/03 08:07:33;;;;;;;6.22;4.45;;;;;;;;;;5054490;28;20033;-64
2022/11/03 08:10:00;;;;;;;6.85;4.38;;;;;;;;;;5054812;28;20025;-63
2022/11/03 08:12:25;;;;;;;5.60;4.80;;;;;;;;;;5054774;28;20506;-67
2022/11/03 08:14:51;;;;;;;5.03;4.25;;;;;;;;;;5054895;28;20100;-63
2022/11/03 08:17:16;;;;;;;4.93;4.38;;;;;;;;;;5054641;28;20546;-63
2022/11/03 08:19:42;;;;;;;5.13;4.57;;;;;;;;;;5054319;28;20087;-64
2022/11/03 08:22:08;;;;;;;7.38;4.20;;;;;;;;;;5054261;28;20032;-63
2022/11/03 08:24:33;;;;;;;4.80;4.13;;;;;;;;;;5054189;28;20033;-64
2022/11/03 08:26:59;;;;;;;4.95;4.35;;;;;;;;;;5054070;28;20025;-64
2022/11/03 08:29:26;;;;;;;5.35;4.38;;;;;;;;;;5054214;28;20086;-65
2022/11/03 08:31:54;;;;;;;5.05;4.47;;;;;;;;;;5054140;28;20427;-67
2022/11/03 08:34:20;;;;;;;6.18;4.65;;;;;;;;;;5053172;28;20447;-64
2022/11/03 08:36:46;;;;;;;5.15;4.47;;;;;;;;;;5053250;28;20017;-67
2022/11/03 08:39:12;;;;;;;5.13;4.18;;;;;;;;;;5054531;28;20089;-66
2022/11/03 08:41:37;;;;;;;5.20;4.50;;;;;;;;;;5054364;28;20103;-65
2022/11/03 08:44:03;;;;;;;4.43;3.83;;;;;;;;;;5054430;28;20389;-64
2022/11/03 08:46:28;;;;;;;5.57;4.63;;;;;;;;;;5053989;28;20511;-66
2022/11/03 08:48:54;;;;;;;5.40;4.10;;;;;;;;;;5053450;28;20033;-67
2022/11/03 08:51:20;;;;;;;6.65;4.65;;;;;;;;;;5053887;28;20040;-65
2022/11/03 08:53:49;;;;;;;4.38;3.97;;;;;;;;;;5053974;28;20037;-65
2022/11/03 08:56:15;;;;;;;4.97;4.45;;;;;;;;;;5053705;28;20032;-65
2022/11/03 08:58:41;;;;;;;5.65;4.53;;;;;;;;;;5053774;28;20384;-65
2022/11/03 09:01:06;;;;;;;6.85;4.68;;;;;;;;;;5053948;28;20472;-65
2022/11/03 09:03:33;;;;;;;5.53;4.53;;;;;;;;;;5053275;28;20123;-63
2022/11/03 09:05:59;;;;;;;4.57;4.05;;;;;;;;;;5029909;28;20030;-64
2022/11/03 09:08:24;;;;;;;4.80;4.30;;;;;;;;;;5031354;28;20075;-67
2022/11/03 09:10:50;;;;;;;5.45;4.18;;;;;;;;;;5027789;28;20436;-65
2022/11/03 09:13:16;;;;;;;4.93;4.32;;;;;;;;;;5027802;28;20025;-65
2022/11/03 09:15:41;;;;;;;4.60;4.18;;;;;;;;;;5026381;28;20105;-65
2022/11/03 09:18:07;;;;;;;4.63;4.10;;;;;;;;;;5025237;28;20029;-64
2022/11/03 09:20:32;;;;;;;4.57;4.18;;;;;;;;;;5026373;28;20037;-65
2022/11/03 09:22:58;;;;;;;5.93;4.43;;;;;;;;;;5028269;28;20021;-64
2022/11/03 09:25:23;;;;;;;5.78;4.30;;;;;;;;;;5056234;28;20393;-64
2022/11/03 09:27:49;;;;;;;4.70;4.20;;;;;;;;;;5027943;28;20033;-68
2022/11/03 09:30:16;;;;;;;4.40;4.00;;;;;;;;;;5029745;28;20432;-64
2022/11/03 09:32:42;;;;;;;6.25;4.53;;;;;;;;;;5029238;28;20482;-67
2022/11/03 09:35:11;;;;;;;4.70;4.22;;;;;;;;;;5054278;28;20072;-64
2022/11/03 09:37:36;;;;;;;5.72;4.07;;;;;;;;;;5013235;28;20034;-68
2022/11/03 09:40:03;;;;;;;4.65;4.25;;;;;;;;;;5013428;28;20161;-66
2022/11/03 09:42:30;;;;;;;4.93;3.92;;;;;;;;;;5013254;28;20109;-64
2022/11/03 09:44:56;;;;;;;4.20;3.80;;;;;;;;;;5013344;28;20108;-62
2022/11/03 09:47:26;;;;;;;6.72;4.10;;;;;;;;;;5045227;28;20165;-63
2022/11/03 09:49:52;;;;;;;4.43;3.85;;;;;;;;;;5019375;28;20048;-65
2022/11/03 09:52:21;;;;;;;4.18;3.78;;;;;;;;;;5029099;28;20029;-65
2022/11/03 09:54:47;;;;;;;4.43;3.92;;;;;;;;;;5032757;28;20025;-66
2022/11/03 09:57:15;;;;;;;6.75;3.92;;;;;;;;;;5027393;28;20167;-63
2022/11/03 09:59:43;;;;;;;4.57;3.90;;;;;;;;;;5030852;28;20061;-64
2022/11/03 10:02:21;;;;;;;4.20;3.65;;;;;;;;;;5030169;28;20018;-63
2022/11/03 10:04:47;;;;;;;4.03;3.63;;;;;;;;;;5030818;28;20521;-68
2022/11/03 10:07:13;;;;;;;5.15;4.30;;;;;;;;;;5032495;28;20113;-68
2022/11/03 10:09:44;;;;;;;4.35;3.83;;;;;;;;;;5032656;28;20049;-67
2022/11/03 10:12:10;;;;;;;4.72;4.22;;;;;;;;;;5032443;28;20022;-68
2022/11/03 10:14:36;;;;;;;10.43;4.18;;;;;;;;;;5031152;28;20030;-65
2022/11/03 10:17:01;;;;;;;5.47;4.20;;;;;;;;;;5031094;28;20390;-68
2022/11/03 10:19:27;;;;;;;4.50;3.95;;;;;;;;;;5028852;28;20100;-66
2022/11/03 10:21:53;;;;;;;5.32;4.20;;;;;;;;;;5028671;28;20108;-67
2022/11/03 10:24:18;;;;;;;4.90;3.90;;;;;;;;;;5030140;28;20025;-67
2022/11/03 10:26:48;;;;;;;5.82;3.88;;;;;;;;;;5030758;28;20031;-64
2022/11/03 10:29:24;;;;;;;7.60;4.05;;;;;;;;;;5032004;28;20033;-66
2022/11/03 10:31:57;;;;;;;4.70;4.13;;;;;;;;;;5027512;28;20037;-67
2022/11/03 10:34:25;;;;;;;11.18;4.05;;;;;;;;;;5011175;28;20052;-65
2022/11/03 10:37:08;;;;;;;5.53;4.07;;;;;;;;;;5012434;28;20467;-66
2022/11/03 10:39:34;;;;;;;6.25;4.03;;;;;;;;;;5047813;28;20026;-66
2022/11/03 10:41:59;;;;;;;5.00;4.22;;;;;;;;;;5012288;28;20030;-64
2022/11/03 10:44:27;;;;;;;6.78;5.28;;;;;;;;;;5016814;28;20083;-67
2022/11/03 10:46:59;;;;;;;12.68;4.55;;;;;;;;;;5011602;28;20030;-67
2022/11/03 10:49:30;;;;;;;9.85;4.50;;;;;;;;;;5011434;28;20026;-67
2022/11/03 10:52:19;;;;;;;6.07;4.28;;;;;;;;;;5012077;28;20411;-66
2022/11/03 10:54:46;;;;;;;6.57;4.38;;;;;;;;;;5025921;28;20030;-65
2022/11/03 10:57:13;;;;;;;6.43;4.30;;;;;;;;;;5011930;28;20041;-66
2022/11/03 10:59:39;;;;;;;9.52;4.70;;;;;;;;;;5012207;28;20113;-66
2022/11/03 11:02:17;;;;;;;6.22;4.20;;;;;;;;;;5012426;28;20026;-67
2022/11/03 11:04:43;;;;;;;7.57;4.40;;;;;;;;;;5010885;28;20104;-65
2022/11/03 11:07:23;;;;;;;6.40;4.20;;;;;;;;;;5012034;28;20421;-66
2022/11/03 11:09:49;;;;;;;9.27;3.90;;;;;;;;;;5012108;28;20037;-64
2022/11/03 11:12:17;;;;;;;4.95;3.90;;;;;;;;;;5015213;28;20029;-64
2022/11/03 11:14:57;;;;;;;13.32;4.30;;;;;;;;;;5015833;28;20040;-66
2022/11/03 11:17:44;;;;;;;5.28;3.63;;;;;;;;;;5015879;28;20029;-66
2022/11/03 11:20:35;;;;;;;5.45;4.20;;;;;;;;;;5015809;28;20120;-65
2022/11/03 11:23:28;;;;;;;4.80;4.10;;;;;;;;;;5015624;28;20104;-66
2022/11/03 11:26:09;;;;;;;5.10;3.90;;;;;;;;;;5016142;28;20095;-67
2022/11/03 11:28:42;;;;;;;6.63;4.53;;;;;;;;;;5022871;28;20026;-66
2022/11/03 11:31:28;;;;;;;7.72;4.22;;;;;;;;;;5022996;28;20079;-66
2022/11/03 11:34:09;;;;;;;8.25;4.07;;;;;;;;;;5031560;28;20034;-67
2022/11/03 11:36:40;;;;;;;8.10;4.68;;;;;;;;;;5032222;28;20025;-66
2022/11/03 11:39:23;;;;;;;4.85;4.30;;;;;;;;;;5031252;28;20063;-66
2022/11/03 11:42:18;;;;;;;5.97;4.00;;;;;;;;;;5035245;28;20039;-67
2022/11/03 11:44:58;;;;;;;6.28;4.22;;;;;;;;;;5033571;28;20041;-64
2022/11/03 11:47:33;;;;;;;5.07;4.20;;;;;;;;;;5032322;28;20474;-67
2022/11/03 11:50:05;;;;;;;7.13;4.10;;;;;;;;;;5028060;28;20118;-67
2022/11/03 11:52:52;;;;;;;4.93;4.35;;;;;;;;;;5033413;28;20021;-65
2022/11/03 11:55:23;;;;;;;5.32;3.95;;;;;;;;;;5033369;28;20025;-66
2022/11/03 11:57:49;;;;;;;6.43;4.35;;;;;;;;;;5033261;28;20484;-65
2022/11/03 12:00:27;;;;;;;7.57;4.32;;;;;;;;;;5033663;28;20055;-66
2022/11/03 12:03:02;;;;;;;5.13;4.28;;;;;;;;;;5033253;28;20412;-66
2022/11/03 12:05:34;;;;;;;5.25;3.80;;;;;;;;;;5033067;28;20048;-66
2022/11/03 12:08:00;;;;;;;5.97;4.68;;;;;;;;;;5031911;28;20120;-67
2022/11/03 12:10:27;;;;;;;5.75;4.65;;;;;;;;;;5033030;28;20471;-67
2022/11/03 12:12:58;;;;;;;5.78;4.18;;;;;;;;;;5032898;28;20071;-67
2022/11/03 12:15:55;;;;;;;4.63;3.97;;;;;;;;;;5033028;28;20037;-67
2022/11/03 12:18:28;;;;;;;6.68;4.22;;;;;;;;;;5033253;28;20083;-65
2022/11/03 12:20:54;;;;;;;6.15;4.38;;;;;;;;;;5032990;28;20033;-65
2022/11/03 12:23:34;;;;;;;5.85;4.20;;;;;;;;;;5031868;28;20030;-66
2022/11/03 12:26:00;;;;;;;;;;;;;;;;;;5033187;28;20117;-65
2022/11/03 12:28:36;;;;;;;6.20;4.20;;;;;;;;;;5032704;28;20059;-64
2022/11/03 12:31:02;;;;;;;5.00;3.85;;;;;;;;;;5032615;28;20037;-66
2022/11/03 12:33:28;;;;;;;7.03;4.40;;;;;;;;;;5032796;28;20025;-66
2022/11/03 12:35:54;;;;;;;6.32;4.35;;;;;;;;;;5031282;28;20143;-64
2022/11/03 12:38:20;;;;;;;13.10;4.40;;;;;;;;;;5032544;28;20032;-65
2022/11/03 12:40:49;;;;;;;9.27;4.88;;;;;;;;;;5032505;28;20025;-64
2022/11/03 12:43:15;;;;;;;7.13;4.20;;;;;;;;;;5032850;28;20044;-66
2022/11/03 12:45:41;;;;;;;6.30;4.22;;;;;;;;;;5031519;28;20381;-65
2022/11/03 12:48:07;;;;;;;5.40;4.07;;;;;;;;;;5030041;28;20034;-66
2022/11/03 12:50:36;;;;;;;7.15;4.43;;;;;;;;;;5028043;28;20124;-67
2022/11/03 12:53:03;;;;;;;6.85;4.70;;;;;;;;;;5031780;28;20037;-67
2022/11/03 12:55:29;;;;;;;7.88;4.60;;;;;;;;;;5030790;28;20128;-68
2022/11/03 12:57:54;;;;;;;5.20;4.15;;;;;;;;;;5032127;28;20101;-64
2022/11/03 13:00:20;;;;;;;9.50;4.43;;;;;;;;;;5064275;28;20071;-63
2022/11/03 13:02:45;;;;;;;7.25;4.03;;;;;;;;;;5032030;28;20025;-65
2022/11/03 13:05:14;;;;;;;6.53;4.35;;;;;;;;;;5031978;28;20053;-67
2022/11/03 13:07:42;;;;;;;10.52;4.40;;;;;;;;;;5031944;28;20030;-68
2022/11/03 13:10:09;;;;;;;4.80;4.10;;;;;;;;;;5032049;28;20061;-63
2022/11/03 13:12:35;;;;;;;5.72;4.13;;;;;;;;;;5063600;28;20033;-62
2022/11/03 13:15:06;;;;;;;5.22;4.40;;;;;;;;;;5031967;28;20048;-63
2022/11/03 13:17:32;;;;;;;4.50;4.05;;;;;;;;;;5031578;28;20021;-61
2022/11/03 13:19:58;;;;;;;5.95;4.47;;;;;;;;;;5031704;28;20113;-61
2022/11/03 13:22:24;;;;;;;5.50;4.72;;;;;;;;;;5031927;28;20108;-63
2022/11/03 13:24:50;;;;;;;5.68;4.60;;;;;;;;;;5031617;28;20084;-63
2022/11/03 13:27:17;;;;;;;5.95;3.95;;;;;;;;;;5028902;28;20037;-66
2022/11/03 13:29:43;;;;;;;6.45;4.78;;;;;;;;;;5030074;28;20102;-63
2022/11/03 13:32:10;;;;;;;4.90;4.40;;;;;;;;;;5031439;28;20021;-66
2022/11/03 13:34:35;;;;;;;6.40;4.63;;;;;;;;;;5026631;28;20057;-64
2022/11/03 13:37:01;;;;;;;6.45;4.50;;;;;;;;;;5031411;28;20072;-67
2022/11/03 13:39:27;;;;;;;5.65;4.32;;;;;;;;;;5030089;28;20021;-67
2022/11/03 13:41:52;;;;;;;5.90;4.25;;;;;;;;;;5031513;28;20025;-67
2022/11/03 13:44:18;;;;;;;4.85;4.18;;;;;;;;;;5029875;28;20563;-64
2022/11/03 13:46:44;;;;;;;6.88;4.30;;;;;;;;;;5031722;28;20116;-67
2022/11/03 13:49:09;;;;;;;4.53;3.80;;;;;;;;;;5030436;28;20436;-67
2022/11/03 13:51:35;;;;;;;4.60;4.20;;;;;;;;;;5031438;28;20472;-68
2022/11/03 13:54:00;;;;;;;6.10;4.30;;;;;;;;;;5029990;28;20060;-65
2022/11/03 13:56:26;;;;;;;6.70;4.70;;;;;;;;;;5031408;28;20095;-68
2022/11/03 13:58:52;;;;;;;7.13;4.75;;;;;;;;;;5031081;28;20033;-66
2022/11/03 14:01:18;;;;;;;7.88;4.60;;;;;;;;;;5031109;28;20033;-66
2022/11/03 14:03:43;;;;;;;6.13;4.65;;;;;;;;;;5030854;28;20049;-65
2022/11/03 14:06:09;;;;;;;5.07;4.25;;;;;;;;;;5031016;28;20029;-67
2022/11/03 14:08:34;;;;;;;6.90;5.07;;;;;;;;;;5031343;28;20029;-67
2022/11/03 14:12:29;;;;;;;5.68;4.63;;;;;;;;;;5030813;28;20037;-66
2022/11/03 14:13:45;;;;;;;6.15;4.82;;;;;;;;;;5030872;28;20421;-66
2022/11/03 14:16:11;;;;;;;4.70;4.20;;;;;;;;;;5031137;28;20025;-64
2022/11/03 14:18:36;;;;;;;4.90;4.40;;;;;;;;;;5030940;28;20448;-66
2022/11/03 14:21:02;;;;;;;5.25;4.50;;;;;;;;;;5030900;28;20033;-64
2022/11/03 14:23:27;;;;;;;9.32;5.20;;;;;;;;;;5030377;28;20048;-68
2022/11/03 14:25:53;;;;;;;5.03;4.25;;;;;;;;;;5030701;28;20064;-64
2022/11/03 14:28:18;;;;;;;5.45;4.78;;;;;;;;;;5030787;28;20037;-66
2022/11/03 14:30:44;;;;;;;5.32;4.45;;;;;;;;;;5030628;28;20381;-63
2022/11/03 14:33:10;;;;;;;5.60;4.40;;;;;;;;;;5030789;28;20482;-66
2022/11/03 14:35:36;;;;;;;5.53;4.90;;;;;;;;;;5030493;28;20033;-66
2022/11/03 14:38:01;;;;;;;6.03;4.40;;;;;;;;;;5029770;28;20124;-68
2022/11/03 14:43:11;;;;;;;5.75;4.55;;;;;;;;;;5030974;28;20083;-66
2022/11/03 14:45:37;;;;;;;6.50;4.60;;;;;;;;;;5030842;28;20549;-66
2022/11/03 14:48:04;;;;;;;5.10;4.60;;;;;;;;;;5034840;28;20047;-64
2022/11/03 14:50:29;;;;;;;5.18;4.50;;;;;;;;;;5028150;28;20030;-62
2022/11/03 14:52:55;;;;;;;6.78;5.15;;;;;;;;;;5034366;28;20041;-64
2022/11/03 14:55:20;;;;;;;5.53;4.53;;;;;;;;;;5034255;28;20084;-64
2022/11/03 14:57:46;;;;;;;6.07;5.10;;;;;;;;;;5034443;28;20025;-64
2022/11/03 15:00:12;;;;;;;6.60;4.68;;;;;;;;;;5034224;28;20132;-65
2022/11/03 15:02:37;;;;;;;5.13;4.65;;;;;;;;;;5034400;28;20033;-65
2022/11/03 15:05:03;;;;;;;8.13;5.32;;;;;;;;;;5034021;28;20050;-65
2022/11/03 15:07:29;;;;;;;5.63;4.72;;;;;;;;;;5034290;28;20434;-65
2022/11/03 15:09:55;;;;;;;9.75;4.72;;;;;;;;;;5033043;28;20408;-65
2022/11/03 15:12:20;;;;;;;6.78;5.05;;;;;;;;;;5032924;28;20481;-66
2022/11/03 15:14:46;;;;;;;5.95;4.78;;;;;;;;;;5034187;28;20492;-65
2022/11/03 15:17:11;;;;;;;6.32;5.03;;;;;;;;;;5034221;28;20018;-65